createdAt,value
2023-05-21T00:01:25.799Z,101570.97
2023-05-21T00:03:52.467Z,101578.78
2023-05-21T00:06:20.908Z,101575.72
2023-05-21T00:08:47.638Z,101578.09
2023-05-21T00:11:14.143Z,101578.91
2023-05-21T00:13:40.705Z,101577.34
2023-05-21T00:16:07.741Z,101571.88
2023-05-21T00:18:34.386Z,101580.19
2023-05-21T00:21:01.661Z,101574.25
2023-05-21T00:23:28.218Z,101572.25
2023-05-21T00:25:54.740Z,101569.50
2023-05-21T00:28:21.223Z,101576.28
2023-05-21T00:30:47.734Z,101571.16
2023-05-21T00:33:14.679Z,101575.50
2023-05-21T00:35:41.544Z,101574.31
2023-05-21T00:38:08.577Z,101569.25
2023-05-21T00:40:35.889Z,101566.91
2023-05-21T00:43:02.604Z,101563.50
2023-05-21T00:45:29.602Z,101565.06
2023-05-21T00:47:56.378Z,101564.25
2023-05-21T00:50:23.490Z,101562.69
2023-05-21T00:52:50.167Z,101559.91
2023-05-21T00:55:16.812Z,101554.06
2023-05-21T00:57:45.955Z,101550.16
2023-05-21T01:00:14.377Z,101552.50
2023-05-21T01:02:41.033Z,101551.28
2023-05-21T01:05:07.983Z,101544.97
2023-05-21T01:07:36.432Z,101541.88
2023-05-21T01:10:04.217Z,101541.47
2023-05-21T01:12:32.296Z,101535.97
2023-05-21T01:15:00.617Z,101542.31
2023-05-21T01:17:28.786Z,101539.94
2023-05-21T01:19:59.919Z,101531.31
2023-05-21T01:22:26.374Z,101535.09
2023-05-21T01:24:55.784Z,101525.41
2023-05-21T01:27:22.860Z,101532.94
2023-05-21T01:29:50.131Z,101529.41
2023-05-21T01:32:27.361Z,101532.53
2023-05-21T01:39:10.002Z,101521.22
2023-05-21T01:41:38.662Z,101531.44
2023-05-21T01:44:07.028Z,101528.28
2023-05-21T01:46:35.952Z,101523.19
2023-05-21T01:49:03.095Z,101523.59
2023-05-21T01:51:30.152Z,101523.59
2023-05-21T01:53:56.642Z,101520.88
2023-05-21T01:56:25.931Z,101514.19
2023-05-21T01:58:52.678Z,101519.31
2023-05-21T02:01:20.256Z,101516.56
2023-05-21T02:03:46.899Z,101518.94
2023-05-21T02:06:13.487Z,101521.25
2023-05-21T02:08:40.289Z,101519.28
2023-05-21T02:11:06.896Z,101512.63
2023-05-21T02:13:33.824Z,101513.41
2023-05-21T02:16:01.536Z,101515.34
2023-05-21T02:18:29.272Z,101516.09
2023-05-21T02:20:56.277Z,101503.16
2023-05-21T02:23:22.826Z,101504.31
2023-05-21T02:25:49.338Z,101497.66
2023-05-21T02:28:15.900Z,101496.88
2023-05-21T02:30:42.414Z,101496.88
2023-05-21T02:33:09.180Z,101498.44
2023-05-21T02:35:36.054Z,101496.06
2023-05-21T02:38:03.064Z,101494.88
2023-05-21T02:40:29.755Z,101496.81
2023-05-21T02:42:56.267Z,101500.75
2023-05-21T02:45:22.851Z,101498.78
2023-05-21T02:47:49.515Z,101491.72
2023-05-21T02:50:18.725Z,101492.50
2023-05-21T02:52:52.482Z,101486.63
2023-05-21T02:55:19.324Z,101486.22
2023-05-21T02:57:45.832Z,101485.44
2023-05-21T03:00:13.315Z,101481.53
2023-05-21T03:02:41.458Z,101481.91
2023-05-21T03:05:08.397Z,101482.31
2023-05-21T03:07:34.891Z,101491.31
2023-05-21T03:10:01.440Z,101477.19
2023-05-21T03:12:27.934Z,101482.66
2023-05-21T03:14:54.424Z,101477.22
2023-05-21T03:17:22.210Z,101484.28
2023-05-21T03:19:49.403Z,101489.75
2023-05-21T03:22:16.258Z,101491.31
2023-05-21T03:24:42.768Z,101482.72
2023-05-21T03:27:09.708Z,101484.28
2023-05-21T03:29:36.276Z,101485.09
2023-05-21T03:32:03.437Z,101485.09
2023-05-21T03:34:34.312Z,101487.47
2023-05-21T03:37:00.878Z,101484.31
2023-05-21T03:39:28.158Z,101477.28
2023-05-21T03:41:55.955Z,101489.88
2023-05-21T03:44:32.550Z,101492.63
2023-05-21T03:47:15.335Z,101502.41
2023-05-21T03:49:41.856Z,101489.84
2023-05-21T03:52:08.729Z,101493.78
2023-05-21T03:54:35.909Z,101488.28
2023-05-21T03:57:06.148Z,101491.84
2023-05-21T03:59:33.184Z,101493.78
2023-05-21T04:02:00.327Z,101495.34
2023-05-21T04:04:29.293Z,101493.78
2023-05-21T04:06:56.012Z,101496.09
2023-05-21T04:09:23.045Z,101487.47
2023-05-21T04:11:51.763Z,101496.06
2023-05-21T04:14:18.305Z,101495.28
2023-05-21T04:16:44.904Z,101497.25
2023-05-21T04:19:11.484Z,101489.00
2023-05-21T04:21:38.094Z,101490.16
2023-05-21T04:24:05.429Z,101503.47
2023-05-21T04:27:01.251Z,101501.50
2023-05-21T04:29:30.033Z,101499.88
2023-05-21T04:31:56.911Z,101504.16
2023-05-21T04:34:23.642Z,101503.72
2023-05-21T04:36:51.921Z,101514.31
2023-05-21T04:39:18.453Z,101502.41
2023-05-21T04:41:45.147Z,101512.72
2023-05-21T04:44:14.704Z,101498.56
2023-05-21T04:46:42.934Z,101501.28
2023-05-21T04:49:10.139Z,101511.81
2023-05-21T04:51:37.822Z,101510.56
2023-05-21T04:54:04.417Z,101505.22
2023-05-21T04:56:31.861Z,101513.00
2023-05-21T04:58:58.909Z,101513.28
2023-05-21T05:01:27.204Z,101502.06
2023-05-21T05:03:54.033Z,101501.00
2023-05-21T05:06:21.413Z,101506.38
2023-05-21T05:08:48.332Z,101505.09
2023-05-21T05:11:15.968Z,101511.16
2023-05-21T05:13:42.488Z,101507.53
2023-05-21T05:16:09.115Z,101503.50
2023-05-21T05:18:36.445Z,101507.31
2023-05-21T05:21:03.141Z,101511.22
2023-05-21T05:23:30.184Z,101513.56
2023-05-21T05:25:56.726Z,101509.78
2023-05-21T05:28:23.270Z,101509.31
2023-05-21T05:30:49.946Z,101505.56
2023-05-21T05:33:21.930Z,101503.25
2023-05-21T05:35:49.234Z,101510.06
2023-05-21T05:38:17.028Z,101515.19
2023-05-21T05:40:43.584Z,101517.44
2023-05-21T05:43:10.109Z,101513.16
2023-05-21T05:45:36.969Z,101515.94
2023-05-21T05:48:09.530Z,101516.91
2023-05-21T05:50:36.198Z,101511.50
2023-05-21T05:53:02.933Z,101514.59
2023-05-21T05:55:29.668Z,101512.63
2023-05-21T05:57:56.196Z,101512.66
2023-05-21T06:00:23.087Z,101507.59
2023-05-21T06:02:50.863Z,101516.22
2023-05-21T06:05:17.597Z,101511.03
2023-05-21T06:07:44.291Z,101503.31
2023-05-21T06:10:10.867Z,101505.69
2023-05-21T06:12:37.382Z,101507.31
2023-05-21T06:15:04.986Z,101506.38
2023-05-21T06:17:31.830Z,101506.25
2023-05-21T06:19:58.381Z,101500.84
2023-05-21T06:22:26.545Z,101504.81
2023-05-21T06:24:53.146Z,101498.94
2023-05-21T06:27:20.530Z,101500.28
2023-05-21T06:29:47.996Z,101500.84
2023-05-21T06:32:14.526Z,101502.06
2023-05-21T06:34:41.627Z,101501.25
2023-05-21T06:37:08.141Z,101502.00
2023-05-21T06:39:34.636Z,101505.44
2023-05-21T06:42:01.793Z,101489.34
2023-05-21T06:44:44.042Z,101487.09
2023-05-21T06:47:16.770Z,101487.94
2023-05-21T06:49:43.733Z,101487.31
2023-05-21T06:52:11.158Z,101488.56
2023-05-21T06:54:38.231Z,101486.25
2023-05-21T06:57:05.984Z,101497.66
2023-05-21T06:59:32.593Z,101489.41
2023-05-21T07:01:59.596Z,101485.56
2023-05-21T07:04:26.520Z,101486.09
2023-05-21T07:06:53.535Z,101488.22
2023-05-21T07:09:20.141Z,101490.25
2023-05-21T07:11:47.796Z,101484.91
2023-05-21T07:14:16.272Z,101490.75
2023-05-21T07:16:42.835Z,101486.41
2023-05-21T07:19:09.591Z,101490.47
2023-05-21T07:21:36.217Z,101490.09
2023-05-21T07:24:02.707Z,101494.69
2023-05-21T07:26:29.250Z,101489.66
2023-05-21T07:28:55.755Z,101487.31
2023-05-21T07:31:22.721Z,101480.31
2023-05-21T07:33:51.605Z,101490.69
2023-05-21T07:36:21.718Z,101478.56
2023-05-21T07:38:48.208Z,101490.34
2023-05-21T07:41:16.439Z,101486.59
2023-05-21T07:43:44.731Z,101477.34
2023-05-21T07:46:11.745Z,101477.00
2023-05-21T07:48:38.504Z,101480.31
2023-05-21T07:51:05.421Z,101481.91
2023-05-21T07:53:33.258Z,101484.22
2023-05-21T07:56:03.284Z,101478.50
2023-05-21T07:58:31.054Z,101472.13
2023-05-21T08:00:58.441Z,101474.03
2023-05-21T08:03:26.690Z,101469.50
2023-05-21T08:05:53.412Z,101466.81
2023-05-21T08:08:20.184Z,101471.25
2023-05-21T08:10:47.798Z,101468.59
2023-05-21T08:13:15.833Z,101465.16
2023-05-21T08:15:42.728Z,101467.66
2023-05-21T08:18:09.867Z,101464.78
2023-05-21T08:20:36.549Z,101468.03
2023-05-21T08:23:03.127Z,101474.47
2023-05-21T08:25:37.331Z,101465.47
2023-05-21T08:28:04.665Z,101459.81
2023-05-21T08:30:31.321Z,101467.78
2023-05-21T08:32:58.747Z,101462.34
2023-05-21T08:35:26.794Z,101468.16
2023-05-21T08:37:57.863Z,101455.88
2023-05-21T08:40:47.858Z,101462.13
2023-05-21T08:43:16.447Z,101468.34
2023-05-21T08:45:45.863Z,101466.28
2023-05-21T08:48:13.108Z,101463.59
2023-05-21T08:50:41.252Z,101457.94
2023-05-21T08:53:23.941Z,101467.75
2023-05-21T08:55:58.632Z,101461.81
2023-05-21T08:58:37.258Z,101463.00
2023-05-21T09:01:04.910Z,101463.88
2023-05-21T09:03:33.091Z,101464.94
2023-05-21T09:06:00.184Z,101471.97
2023-05-21T09:08:32.252Z,101462.78
2023-05-21T09:11:05.094Z,101463.06
2023-05-21T09:13:39.132Z,101455.34
2023-05-21T09:16:12.211Z,101456.72
2023-05-21T09:18:38.721Z,101459.19
2023-05-21T09:21:28.432Z,101458.31
2023-05-21T09:23:59.855Z,101452.41
2023-05-21T09:26:26.596Z,101450.88
2023-05-21T09:28:57.944Z,101448.09
2023-05-21T09:31:24.551Z,101448.50
2023-05-21T09:33:51.212Z,101441.81
2023-05-21T09:36:20.347Z,101440.44
2023-05-21T09:38:51.778Z,101435.28
2023-05-21T09:41:21.927Z,101437.56
2023-05-21T09:43:49.265Z,101443.19
2023-05-21T09:46:16.381Z,101437.03
2023-05-21T09:48:43.658Z,101441.50
2023-05-21T09:51:18.375Z,101433.31
2023-05-21T09:53:48.868Z,101434.41
2023-05-21T09:56:15.578Z,101436.53
2023-05-21T09:58:42.397Z,101428.03
2023-05-21T10:01:10.713Z,101432.41
2023-05-21T10:03:39.524Z,101422.09
2023-05-21T10:06:08.061Z,101421.19
2023-05-21T10:08:37.452Z,101412.69
2023-05-21T10:11:05.879Z,101427.34
2023-05-21T10:13:34.433Z,101413.53
2023-05-21T10:16:03.139Z,101414.81
2023-05-21T10:18:30.972Z,101400.50
2023-05-21T10:20:58.006Z,101407.34
2023-05-21T10:23:24.908Z,101398.66
2023-05-21T10:25:52.191Z,101399.41
2023-05-21T10:28:19.718Z,101399.25
2023-05-21T10:30:46.414Z,101403.41
2023-05-21T10:33:16.288Z,101392.56
2023-05-21T10:35:42.981Z,101401.03
2023-05-21T10:38:09.516Z,101400.88
2023-05-21T10:40:36.462Z,101393.44
2023-05-21T10:43:35.261Z,101390.56
2023-05-21T10:46:37.157Z,101384.88
2023-05-21T10:49:13.066Z,101380.81
2023-05-21T10:52:06.325Z,101377.84
2023-05-21T10:54:48.744Z,101376.88
2023-05-21T10:57:42.721Z,101379.75
2023-05-21T11:00:10.963Z,101384.22
2023-05-21T11:02:38.103Z,101372.63
2023-05-21T11:05:05.013Z,101386.25
2023-05-21T11:07:51.428Z,101365.09
2023-05-21T11:10:30.185Z,101368.19
2023-05-21T11:13:13.657Z,101365.75
2023-05-21T11:15:58.277Z,101366.09
2023-05-21T11:18:30.518Z,101371.09
2023-05-21T11:21:10.179Z,101359.00
2023-05-21T11:24:02.688Z,101368.16
2023-05-21T11:26:47.594Z,101367.91
2023-05-21T11:29:14.802Z,101359.91
2023-05-21T11:31:48.917Z,101360.34
2023-05-21T11:34:19.029Z,101370.53
2023-05-21T11:36:47.118Z,101367.66
2023-05-21T11:39:23.880Z,101357.19
2023-05-21T11:42:03.808Z,101345.59
2023-05-21T11:44:47.832Z,101357.75
2023-05-21T11:47:21.020Z,101358.03
2023-05-21T11:49:48.108Z,101360.59
2023-05-21T11:52:14.781Z,101362.91
2023-05-21T11:54:46.215Z,101353.97
2023-05-21T11:57:17.224Z,101359.00
2023-05-21T11:59:44.435Z,101367.19
2023-05-21T12:02:16.514Z,101361.72
2023-05-21T12:04:43.145Z,101361.47
2023-05-21T12:07:10.888Z,101359.13
2023-05-21T12:09:58.936Z,101355.75
2023-05-21T12:12:27.220Z,101353.91
2023-05-21T12:14:58.196Z,101350.13
2023-05-21T12:17:26.198Z,101351.91
2023-05-21T12:19:54.290Z,101338.25
2023-05-21T12:22:21.327Z,101343.81
2023-05-21T12:24:48.939Z,101354.09
2023-05-21T12:27:16.631Z,101348.56
2023-05-21T12:29:44.425Z,101345.13
2023-05-21T12:32:12.905Z,101340.66
2023-05-21T12:34:52.650Z,101335.75
2023-05-21T12:37:26.034Z,101337.72
2023-05-21T12:39:56.264Z,101334.00
2023-05-21T12:42:27.672Z,101330.28
2023-05-21T12:44:54.440Z,101336.63
2023-05-21T12:47:23.730Z,101337.66
2023-05-21T12:49:53.084Z,101338.25
2023-05-21T12:52:21.557Z,101340.13
2023-05-21T12:54:52.244Z,101331.19
2023-05-21T12:57:19.382Z,101339.88
2023-05-21T12:59:59.230Z,101326.31
2023-05-21T13:02:29.391Z,101333.41
2023-05-21T13:04:59.751Z,101336.25
2023-05-21T13:07:28.321Z,101334.47
2023-05-21T13:09:55.557Z,101336.31
2023-05-21T13:12:26.617Z,101323.38
2023-05-21T13:14:54.508Z,101319.63
2023-05-21T13:17:21.975Z,101319.16
2023-05-21T13:20:12.125Z,101322.81
2023-05-21T13:22:49.227Z,101314.25
2023-05-21T13:25:21.222Z,101314.69
2023-05-21T13:27:51.768Z,101321.00
2023-05-21T13:30:19.115Z,101318.63
2023-05-21T13:32:45.935Z,101312.66
2023-05-21T13:35:12.696Z,101303.16
2023-05-21T13:37:40.745Z,101316.13
2023-05-21T13:40:11.704Z,101307.16
2023-05-21T13:42:38.764Z,101305.38
2023-05-21T13:45:10.740Z,101311.28
2023-05-21T13:47:40.162Z,101311.56
2023-05-21T13:50:08.049Z,101297.78
2023-05-21T13:52:34.708Z,101299.22
2023-05-21T13:55:01.343Z,101291.75
2023-05-21T13:57:30.603Z,101295.38
2023-05-21T13:59:57.772Z,101292.28
2023-05-21T14:02:24.350Z,101293.13
2023-05-21T14:04:50.981Z,101289.59
2023-05-21T14:07:17.480Z,101293.94
2023-05-21T14:09:44.051Z,101290.34
2023-05-21T14:12:10.574Z,101296.78
2023-05-21T14:14:37.849Z,101299.25
2023-05-21T14:17:04.646Z,101296.78
2023-05-21T14:19:31.500Z,101293.91
2023-05-21T14:21:59.795Z,101292.16
2023-05-21T14:24:26.512Z,101288.84
2023-05-21T14:26:53.028Z,101292.72
2023-05-21T14:29:19.561Z,101299.47
2023-05-21T14:31:46.328Z,101297.41
2023-05-21T14:34:12.886Z,101294.47
2023-05-21T14:36:39.508Z,101295.75
2023-05-21T14:39:06.190Z,101290.72
2023-05-21T14:41:32.766Z,101287.16
2023-05-21T14:43:59.254Z,101292.03
2023-05-21T14:46:25.946Z,101288.03
2023-05-21T14:48:52.782Z,101293.06
2023-05-21T14:51:19.326Z,101290.22
2023-05-21T14:53:45.824Z,101296.56
2023-05-21T14:56:12.328Z,101290.69
2023-05-21T14:58:38.838Z,101292.84
2023-05-21T15:01:05.557Z,101294.47
2023-05-21T15:03:32.141Z,101295.75
2023-05-21T15:05:58.839Z,101290.03
2023-05-21T15:08:25.517Z,101295.03
2023-05-21T15:10:52.042Z,101299.63
2023-05-21T15:13:18.605Z,101294.72
2023-05-21T15:15:45.162Z,101292.91
2023-05-21T15:18:11.861Z,101297.41
2023-05-21T15:20:38.349Z,101291.78
2023-05-21T15:23:16.084Z,101289.91
2023-05-21T15:25:43.578Z,101292.72
2023-05-21T15:28:11.734Z,101280.50
2023-05-21T15:30:38.249Z,101288.44
2023-05-21T15:33:04.770Z,101284.00
2023-05-21T15:35:31.518Z,101279.03
2023-05-21T15:37:58.111Z,101277.59
2023-05-21T15:40:26.907Z,101279.91
2023-05-21T15:42:53.882Z,101281.09
2023-05-21T15:45:20.455Z,101276.78
2023-05-21T15:47:46.998Z,101270.00
2023-05-21T15:50:13.553Z,101276.78
2023-05-21T15:52:41.592Z,101278.28
2023-05-21T15:55:08.493Z,101277.00
2023-05-21T15:57:35.032Z,101281.81
2023-05-21T16:00:01.548Z,101275.50
2023-05-21T16:02:28.263Z,101270.88
2023-05-21T16:04:54.960Z,101275.75
2023-05-21T16:07:23.309Z,101269.63
2023-05-21T16:09:49.864Z,101273.31
2023-05-21T16:12:16.394Z,101265.78
2023-05-21T16:14:42.924Z,101272.44
2023-05-21T16:17:11.124Z,101270.50
2023-05-21T16:19:38.691Z,101265.28
2023-05-21T16:22:05.213Z,101259.69
2023-05-21T16:24:31.789Z,101260.38
2023-05-21T16:26:58.366Z,101255.84
2023-05-21T16:29:24.900Z,101260.56
2023-05-21T16:31:51.437Z,101259.00
2023-05-21T16:34:17.993Z,101258.63
2023-05-21T16:36:44.490Z,101255.66
2023-05-21T16:39:11.127Z,101251.00
2023-05-21T16:41:37.625Z,101255.31
2023-05-21T16:44:04.196Z,101252.69
2023-05-21T16:46:30.791Z,101253.25
2023-05-21T16:48:57.356Z,101254.03
2023-05-21T16:51:23.905Z,101251.81
2023-05-21T16:53:50.457Z,101253.25
2023-05-21T16:56:17.007Z,101262.13
2023-05-21T16:58:43.554Z,101261.47
2023-05-21T17:01:10.150Z,101259.94
2023-05-21T17:03:36.834Z,101265.13
2023-05-21T17:06:03.517Z,101262.59
2023-05-21T17:08:30.006Z,101269.75
2023-05-21T17:10:56.570Z,101270.09
2023-05-21T17:13:23.392Z,101274.19
2023-05-21T17:15:53.040Z,101275.66
2023-05-21T17:18:19.593Z,101269.38
2023-05-21T17:20:46.111Z,101270.84
2023-05-21T17:23:12.756Z,101272.13
2023-05-21T17:25:40.065Z,101266.22
2023-05-21T17:28:07.005Z,101270.69
2023-05-21T17:30:33.529Z,101267.25
2023-05-21T17:33:02.168Z,101269.81
2023-05-21T17:35:29.130Z,101266.22
2023-05-21T17:37:55.653Z,101265.53
2023-05-21T17:40:24.462Z,101273.13
2023-05-21T17:42:52.075Z,101270.66
2023-05-21T17:45:18.936Z,101270.41
2023-05-21T17:47:45.549Z,101267.91
2023-05-21T17:50:12.217Z,101270.47
2023-05-21T17:52:38.706Z,101271.00
2023-05-21T17:55:05.669Z,101284.91
2023-05-21T17:57:32.160Z,101282.47
2023-05-21T17:59:58.728Z,101285.56
2023-05-21T18:02:25.987Z,101281.63
2023-05-21T18:04:52.584Z,101287.56
2023-05-21T18:07:19.135Z,101286.97
2023-05-21T18:09:45.647Z,101287.31
2023-05-21T18:12:12.198Z,101283.59
2023-05-21T18:14:38.676Z,101293.06
2023-05-21T18:17:05.912Z,101292.25
2023-05-21T18:19:32.677Z,101289.81
2023-05-21T18:21:59.243Z,101296.03
2023-05-21T18:24:25.792Z,101295.31
2023-05-21T18:26:52.309Z,101298.25
2023-05-21T18:29:18.871Z,101298.28
2023-05-21T18:31:45.587Z,101293.56
2023-05-21T18:34:12.271Z,101296.31
2023-05-21T18:36:39.081Z,101293.03
2023-05-21T18:39:06.794Z,101294.28
2023-05-21T18:41:33.495Z,101293.38
2023-05-21T18:44:01.752Z,101295.25
2023-05-21T18:46:31.733Z,101296.84
2023-05-21T18:48:59.506Z,101299.13
2023-05-21T18:51:26.022Z,101300.22
2023-05-21T18:53:52.561Z,101300.22
2023-05-21T18:56:19.102Z,101301.78
2023-05-21T18:58:45.702Z,101298.38
2023-05-21T19:01:12.388Z,101301.31
2023-05-21T19:03:39.057Z,101308.75
2023-05-21T19:06:05.645Z,101305.84
2023-05-21T19:08:32.133Z,101306.28
2023-05-21T19:10:58.650Z,101312.94
2023-05-21T19:13:25.140Z,101312.19
2023-05-21T19:15:52.125Z,101322.09
2023-05-21T19:18:18.676Z,101318.53
2023-05-21T19:20:45.231Z,101324.41
2023-05-21T19:23:11.732Z,101331.06
2023-05-21T19:25:38.533Z,101329.38
2023-05-21T19:28:05.093Z,101339.09
2023-05-21T19:30:33.556Z,101335.22
2023-05-21T19:33:00.195Z,101345.13
2023-05-21T19:35:26.722Z,101348.38
2023-05-21T19:37:54.770Z,101352.25
2023-05-21T19:40:22.581Z,101343.13
2023-05-21T19:42:49.100Z,101342.94
2023-05-21T19:45:15.680Z,101340.16
2023-05-21T19:47:43.299Z,101345.72
2023-05-21T19:50:10.621Z,101340.16
2023-05-21T19:52:37.996Z,101342.94
2023-05-21T19:55:06.170Z,101340.91
2023-05-21T19:57:32.770Z,101348.47
2023-05-21T19:59:59.469Z,101343.31
2023-05-21T20:02:26.579Z,101354.75
2023-05-21T20:04:56.676Z,101347.09
2023-05-21T20:07:23.561Z,101339.66
2023-05-21T20:09:50.420Z,101346.63
2023-05-21T20:12:17.130Z,101345.22
2023-05-21T20:14:46.746Z,101339.28
2023-05-21T20:17:14.315Z,101340.84
2023-05-21T20:19:41.076Z,101344.25
2023-05-21T20:22:07.668Z,101339.78
2023-05-21T20:24:34.200Z,101340.47
2023-05-21T20:27:01.664Z,101352.31
2023-05-21T20:29:28.772Z,101343.44
2023-05-21T20:31:55.369Z,101343.22
2023-05-21T20:34:21.985Z,101336.78
2023-05-21T20:36:48.614Z,101336.22
2023-05-21T20:39:15.395Z,101339.81
2023-05-21T20:41:44.679Z,101328.69
2023-05-21T20:44:11.796Z,101338.13
2023-05-21T20:46:38.875Z,101339.22
2023-05-21T20:49:05.854Z,101344.22
2023-05-21T20:51:32.548Z,101347.91
2023-05-21T20:53:59.280Z,101348.81
2023-05-21T20:56:40.784Z,101353.50
2023-05-21T20:59:10.952Z,101351.97
2023-05-21T21:01:38.399Z,101355.34
2023-05-21T21:04:05.153Z,101360.00
2023-05-21T21:06:31.883Z,101361.25
2023-05-21T21:08:58.582Z,101369.28
2023-05-21T21:11:25.165Z,101362.09
2023-05-21T21:13:51.934Z,101367.03
2023-05-21T21:16:18.610Z,101361.13
2023-05-21T21:18:46.871Z,101366.81
2023-05-21T21:21:13.583Z,101358.34
2023-05-21T21:23:40.186Z,101363.91
2023-05-21T21:26:07.113Z,101363.53
2023-05-21T21:28:33.781Z,101370.13
2023-05-21T21:31:00.523Z,101361.56
2023-05-21T21:33:27.220Z,101364.78
2023-05-21T21:35:53.777Z,101366.59
2023-05-21T21:38:20.312Z,101357.88
2023-05-21T21:40:46.811Z,101359.63
2023-05-21T21:43:13.365Z,101366.47
2023-05-21T21:45:39.885Z,101370.34
2023-05-21T21:48:06.717Z,101368.81
2023-05-21T21:50:33.288Z,101365.94
2023-05-21T21:52:59.888Z,101366.88
2023-05-21T21:55:26.426Z,101363.03
2023-05-21T21:57:52.949Z,101361.78
2023-05-21T22:00:19.647Z,101365.28
2023-05-21T22:02:49.009Z,101357.75
2023-05-21T22:05:15.640Z,101364.09
2023-05-21T22:07:48.185Z,101361.50
2023-05-21T22:10:16.082Z,101361.53
2023-05-21T22:12:44.066Z,101365.66
2023-05-21T22:15:37.127Z,101358.41
2023-05-21T22:18:03.846Z,101368.44
2023-05-21T22:20:30.394Z,101372.75
2023-05-21T22:22:57.484Z,101372.91
2023-05-21T22:25:24.058Z,101369.91
2023-05-21T22:27:51.071Z,101376.31
2023-05-21T22:30:18.693Z,101368.38
2023-05-21T22:32:47.180Z,101368.13
2023-05-21T22:35:13.752Z,101375.47
2023-05-21T22:37:40.274Z,101375.81
2023-05-21T22:40:07.504Z,101368.25
2023-05-21T22:42:35.050Z,101370.72
2023-05-21T22:45:01.897Z,101371.28
2023-05-21T22:47:28.407Z,101369.72
2023-05-21T22:49:54.915Z,101382.25
2023-05-21T22:52:21.911Z,101371.22
2023-05-21T22:54:48.839Z,101373.56
2023-05-21T22:57:15.414Z,101377.56
2023-05-21T22:59:41.906Z,101371.78
2023-05-21T23:02:08.586Z,101370.78
2023-05-21T23:04:43.372Z,101362.34
2023-05-21T23:07:11.257Z,101371.09
2023-05-21T23:09:37.768Z,101366.78
2023-05-21T23:12:04.575Z,101369.44
2023-05-21T23:14:31.099Z,101372.97
2023-05-21T23:17:01.645Z,101369.56
2023-05-21T23:19:29.240Z,101369.56
2023-05-21T23:21:56.123Z,101362.06
2023-05-21T23:24:22.809Z,101363.50
2023-05-21T23:26:49.385Z,101359.41
2023-05-21T23:29:15.880Z,101359.19
2023-05-21T23:31:42.591Z,101359.06
2023-05-21T23:34:09.571Z,101356.09
2023-05-21T23:36:36.147Z,101350.09
2023-05-21T23:39:02.869Z,101352.84
2023-05-21T23:41:29.477Z,101349.97
